createdAt,value
2023-04-17T00:00:26.369Z,11.93
2023-04-17T00:05:31.918Z,11.98
2023-04-17T00:10:34.959Z,12.02
2023-04-17T00:15:38.159Z,12.07
2023-04-17T00:20:41.418Z,12.08
2023-04-17T00:25:44.476Z,12.10
2023-04-17T00:30:47.374Z,12.11
2023-04-17T00:35:50.470Z,12.15
2023-04-17T00:40:53.841Z,12.14
2023-04-17T00:45:57.510Z,12.15
2023-04-17T00:51:03.474Z,12.18
2023-04-17T00:56:07.109Z,12.16
2023-04-17T01:01:10.293Z,12.18
2023-04-17T01:06:13.309Z,12.17
2023-04-17T01:11:16.262Z,12.22
2023-04-17T01:16:20.935Z,12.21
2023-04-17T01:21:24.038Z,12.20
2023-04-17T01:26:30.894Z,12.10
2023-04-17T01:31:34.394Z,12.01
2023-04-17T01:36:37.313Z,11.89
2023-04-17T01:41:40.625Z,11.72
2023-04-17T01:46:43.580Z,11.64
2023-04-17T01:51:46.566Z,11.64
2023-04-17T01:56:49.508Z,11.56
2023-04-17T02:01:53.465Z,11.51
2023-04-17T02:06:56.366Z,11.44
2023-04-17T02:11:59.303Z,11.39
2023-04-17T02:17:02.543Z,11.28
2023-04-17T02:22:05.690Z,11.19
2023-04-17T02:27:08.561Z,11.15
2023-04-17T02:32:11.513Z,11.13
2023-04-17T02:37:14.613Z,11.06
2023-04-17T02:42:17.539Z,11.04
2023-04-17T02:47:20.586Z,11.04
2023-04-17T02:52:23.957Z,11.07
2023-04-17T02:57:27.269Z,11.13
2023-04-17T03:02:30.664Z,11.19
2023-04-17T03:07:33.971Z,11.19
2023-04-17T03:12:37.351Z,11.23
2023-04-17T03:17:40.544Z,11.23
2023-04-17T03:22:43.533Z,11.23
2023-04-17T03:27:46.811Z,11.21
2023-04-17T03:32:50.403Z,11.20
2023-04-17T03:37:53.529Z,11.20
2023-04-17T03:42:56.539Z,11.19
2023-04-17T03:47:59.531Z,11.21
2023-04-17T03:53:02.601Z,11.20
2023-04-17T03:58:05.551Z,11.20
2023-04-17T04:03:08.645Z,11.21
2023-04-17T04:08:11.620Z,11.24
2023-04-17T04:13:14.570Z,11.27
2023-04-17T04:18:17.554Z,11.33
2023-04-17T04:23:21.290Z,11.40
2023-04-17T04:28:24.523Z,11.48
2023-04-17T04:33:27.731Z,11.51
2023-04-17T04:38:31.173Z,11.57
2023-04-17T04:43:34.279Z,11.65
2023-04-17T04:48:37.721Z,11.78
2023-04-17T04:53:41.626Z,11.87
2023-04-17T04:58:44.574Z,11.94
2023-04-17T05:03:47.792Z,12.05
2023-04-17T05:08:52.105Z,12.15
2023-04-17T05:13:54.824Z,12.28
2023-04-17T05:18:59.020Z,12.40
2023-04-17T05:24:02.063Z,12.51
2023-04-17T05:29:05.156Z,12.65
2023-04-17T05:34:08.602Z,12.77
2023-04-17T05:39:11.880Z,12.86
2023-04-17T05:44:14.956Z,12.94
2023-04-17T05:49:18.092Z,12.95
2023-04-17T05:54:21.078Z,12.98
2023-04-17T05:59:24.024Z,12.99
2023-04-17T06:04:27.181Z,13.05
2023-04-17T06:09:30.378Z,13.13
2023-04-17T06:14:33.527Z,13.23
2023-04-17T06:19:36.552Z,13.30
2023-04-17T06:24:39.456Z,13.43
2023-04-17T06:29:42.283Z,13.54
2023-04-17T06:34:58.593Z,13.56
2023-04-17T06:40:02.685Z,13.64
2023-04-17T06:45:07.059Z,13.69
2023-04-17T06:50:10.542Z,13.81
2023-04-17T06:55:13.722Z,13.96
2023-04-17T07:00:17.219Z,14.31
2023-04-17T07:05:20.336Z,14.64
2023-04-17T07:10:23.620Z,14.96
2023-04-17T07:15:30.636Z,15.14
2023-04-17T07:20:33.793Z,15.22
2023-04-17T07:25:36.730Z,15.45
2023-04-17T07:30:39.756Z,15.63
2023-04-17T07:35:43.981Z,16.13
2023-04-17T07:40:46.991Z,16.73
2023-04-17T07:45:50.103Z,17.50
2023-04-17T07:50:53.522Z,17.98
2023-04-17T07:55:58.413Z,17.79
2023-04-17T08:01:05.629Z,17.54
2023-04-17T08:06:08.659Z,17.40
2023-04-17T08:11:11.677Z,17.33
2023-04-17T08:16:14.852Z,17.13
2023-04-17T08:21:17.900Z,16.94
2023-04-17T08:26:20.936Z,16.81
2023-04-17T08:31:23.916Z,16.83
2023-04-17T08:36:27.569Z,16.88
2023-04-17T08:41:39.453Z,16.99
2023-04-17T08:46:42.733Z,17.16
2023-04-17T08:51:47.243Z,17.33
2023-04-17T08:56:50.714Z,17.36
2023-04-17T09:02:05.068Z,17.40
2023-04-17T09:07:11.198Z,17.53
2023-04-17T09:12:14.807Z,18.44
2023-04-17T09:17:20.289Z,19.20
2023-04-17T09:22:23.384Z,19.28
2023-04-17T09:27:28.127Z,19.17
2023-04-17T09:32:33.055Z,18.72
2023-04-17T09:37:51.608Z,19.33
2023-04-17T09:43:00.372Z,19.62
2023-04-17T09:48:13.036Z,20.26
2023-04-17T09:53:18.308Z,21.29
2023-04-17T09:58:22.262Z,22.02
2023-04-17T10:03:26.463Z,22.37
2023-04-17T10:08:29.578Z,21.99
2023-04-17T10:13:38.789Z,21.32
2023-04-17T10:18:42.117Z,20.47
2023-04-17T10:23:45.324Z,20.48
2023-04-17T10:28:50.046Z,20.97
2023-04-17T10:33:54.629Z,21.33
2023-04-17T10:39:16.422Z,21.78
2023-04-17T10:44:19.413Z,21.75
2023-04-17T10:49:22.420Z,21.30
2023-04-17T10:54:25.507Z,20.32
2023-04-17T10:59:30.285Z,20.13
2023-04-17T11:04:36.122Z,19.71
2023-04-17T11:09:40.042Z,19.38
2023-04-17T11:14:44.013Z,19.16
2023-04-17T11:19:47.905Z,19.13
2023-04-17T11:24:51.827Z,19.17
2023-04-17T11:29:54.951Z,19.08
2023-04-17T11:34:58.117Z,19.29
2023-04-17T11:40:10.267Z,19.76
2023-04-17T11:45:13.365Z,20.24
2023-04-17T11:50:16.461Z,20.56
2023-04-17T11:55:19.615Z,20.56
2023-04-17T12:00:27.587Z,20.55
2023-04-17T12:05:31.506Z,20.77
2023-04-17T12:10:40.968Z,21.06
2023-04-17T12:15:44.022Z,21.14
2023-04-17T12:20:48.661Z,20.96
2023-04-17T12:25:51.646Z,20.32
2023-04-17T12:30:54.461Z,20.37
2023-04-17T12:35:57.949Z,20.11
2023-04-17T12:41:01.048Z,20.02
2023-04-17T12:46:04.554Z,19.88
2023-04-17T12:51:11.663Z,20.79
2023-04-17T12:56:15.239Z,21.68
2023-04-17T13:01:18.498Z,21.90
2023-04-17T13:06:21.588Z,22.56
2023-04-17T13:11:24.772Z,23.55
2023-04-17T13:16:27.846Z,23.94
2023-04-17T13:21:31.173Z,23.39
2023-04-17T13:26:36.597Z,21.56
2023-04-17T13:31:39.576Z,19.48
2023-04-17T13:36:45.097Z,18.25
2023-04-17T13:41:48.573Z,17.53
2023-04-17T13:46:52.316Z,17.17
2023-04-17T13:51:55.605Z,16.90
2023-04-17T13:56:58.736Z,16.77
2023-04-17T14:02:04.180Z,16.60
2023-04-17T14:07:08.299Z,16.55
2023-04-17T14:12:11.198Z,16.72
2023-04-17T14:17:14.248Z,16.89
2023-04-17T14:22:17.263Z,16.95
2023-04-17T14:27:20.301Z,16.88
2023-04-17T14:32:23.434Z,16.95
2023-04-17T14:37:28.063Z,16.93
2023-04-17T14:42:32.695Z,16.81
2023-04-17T14:47:39.268Z,16.78
2023-04-17T14:52:42.274Z,16.65
2023-04-17T14:57:45.113Z,16.64
2023-04-17T15:02:49.191Z,16.65
2023-04-17T15:07:53.506Z,16.67
2023-04-17T15:13:00.253Z,16.69
2023-04-17T15:18:03.280Z,16.64
2023-04-17T15:23:06.421Z,16.71
2023-04-17T15:28:09.785Z,16.75
2023-04-17T15:33:14.104Z,16.68
2023-04-17T15:38:17.052Z,16.70
2023-04-17T15:43:21.186Z,16.65
2023-04-17T15:48:24.115Z,16.64
2023-04-17T15:53:27.032Z,16.49
2023-04-17T15:58:30.143Z,16.46
2023-04-17T16:03:33.517Z,16.43
2023-04-17T16:08:37.394Z,16.33
2023-04-17T16:13:40.539Z,16.22
2023-04-17T16:18:46.883Z,16.17
2023-04-17T16:23:50.015Z,16.10
2023-04-17T16:28:53.004Z,16.03
2023-04-17T16:33:56.172Z,16.01
2023-04-17T16:38:59.182Z,15.92
2023-04-17T16:44:02.139Z,15.82
2023-04-17T16:49:10.034Z,15.70
2023-04-17T16:54:13.652Z,15.58
2023-04-17T16:59:16.822Z,15.51
2023-04-17T17:04:19.975Z,15.43
2023-04-17T17:09:23.158Z,15.30
2023-04-17T17:14:26.167Z,15.19
2023-04-17T17:19:29.139Z,15.06
2023-04-17T17:24:32.400Z,14.91
2023-04-17T17:29:35.935Z,14.76
2023-04-17T17:34:39.252Z,14.60
2023-04-17T17:39:42.210Z,14.42
2023-04-17T17:44:45.784Z,14.24
2023-04-17T17:49:49.470Z,14.02
2023-04-17T17:54:52.820Z,13.90
2023-04-17T17:59:55.901Z,13.78
2023-04-17T18:04:58.957Z,13.69
2023-04-17T18:10:02.115Z,13.65
2023-04-17T18:15:06.406Z,13.61
2023-04-17T18:20:11.871Z,13.62
2023-04-17T18:25:15.111Z,13.58
2023-04-17T18:30:18.447Z,13.58
2023-04-17T18:35:21.270Z,13.57
2023-04-17T18:40:24.666Z,13.60
2023-04-17T18:45:29.329Z,13.61
2023-04-17T18:50:33.270Z,13.59
2023-04-17T18:55:39.650Z,13.66
2023-04-17T19:00:43.060Z,13.61
2023-04-17T19:05:46.527Z,13.58
2023-04-17T19:10:49.833Z,13.52
2023-04-17T19:15:53.037Z,13.53
2023-04-17T19:20:56.424Z,13.59
2023-04-17T19:25:59.397Z,13.60
2023-04-17T19:31:06.264Z,13.65
2023-04-17T19:36:09.379Z,13.69
2023-04-17T19:41:19.771Z,13.71
2023-04-17T19:46:24.596Z,13.75
2023-04-17T19:51:27.927Z,13.75
2023-04-17T19:56:31.157Z,13.72
2023-04-17T20:01:35.488Z,13.73
2023-04-17T20:06:39.736Z,13.70
2023-04-17T20:11:43.056Z,13.68
2023-04-17T20:16:46.654Z,13.65
2023-04-17T20:21:49.458Z,13.62
2023-04-17T20:26:53.204Z,13.59
2023-04-17T20:31:56.062Z,13.54
2023-04-17T20:36:58.998Z,13.41
2023-04-17T20:42:02.025Z,13.35
2023-04-17T20:47:05.666Z,13.29
2023-04-17T20:52:08.677Z,13.22
2023-04-17T20:57:11.650Z,13.19
2023-04-17T21:02:16.262Z,13.17
2023-04-17T21:07:19.854Z,13.10
2023-04-17T21:12:23.195Z,13.06
2023-04-17T21:17:26.242Z,13.04
2023-04-17T21:22:29.235Z,13.02
2023-04-17T21:27:32.236Z,12.97
2023-04-17T21:32:35.218Z,12.90
2023-04-17T21:37:38.369Z,12.79
2023-04-17T21:42:41.411Z,12.65
2023-04-17T21:47:45.331Z,12.50
2023-04-17T21:52:48.475Z,12.41
2023-04-17T21:57:51.752Z,12.30
2023-04-17T22:02:54.754Z,12.30
2023-04-17T22:07:57.815Z,12.33
2023-04-17T22:13:00.916Z,12.35
2023-04-17T22:18:04.219Z,12.34
2023-04-17T22:23:07.636Z,12.35
2023-04-17T22:28:10.613Z,12.36
2023-04-17T22:33:13.583Z,12.37
2023-04-17T22:38:18.264Z,12.39
2023-04-17T22:43:21.221Z,12.41
2023-04-17T22:48:24.628Z,12.42
2023-04-17T22:53:27.799Z,12.38
2023-04-17T22:58:33.955Z,12.39
2023-04-17T23:03:37.267Z,12.37
2023-04-17T23:08:40.372Z,12.35
2023-04-17T23:13:43.671Z,12.31
2023-04-17T23:18:46.695Z,12.22
2023-04-17T23:23:49.566Z,11.96
2023-04-17T23:28:52.557Z,11.69
2023-04-17T23:33:55.331Z,11.50
2023-04-17T23:38:58.283Z,11.32
2023-04-17T23:44:01.322Z,11.20
2023-04-17T23:49:05.152Z,11.09
2023-04-17T23:54:08.217Z,10.99
2023-04-17T23:59:11.657Z,11.00
